sensor_id;sensor_type;location;lat;lon;timestamp;pressure;altitude;pressure_sealevel;temperature;humidity
17254;BME280;32542;52.832;13.816;2023-03-31T00:01:44;100365.97;;;22.00;45.33
17254;BME280;32542;52.832;13.816;2023-03-31T00:04:47;100366.84;;;22.01;45.27
17254;BME280;32542;52.832;13.816;2023-03-31T00:07:54;100357.97;;;22.00;45.44
17254;BME280;32542;52.832;13.816;2023-03-31T00:11:04;100359.69;;;22.01;45.29
17254;BME280;32542;52.832;13.816;2023-03-31T00:14:08;100353.56;;;21.99;45.13
17254;BME280;32542;52.832;13.816;2023-03-31T00:17:11;100361.56;;;21.99;45.28
17254;BME280;32542;52.832;13.816;2023-03-31T00:20:14;100353.56;;;21.99;45.23
17254;BME280;32542;52.832;13.816;2023-03-31T00:23:17;100348.25;;;21.99;45.18
17254;BME280;32542;52.832;13.816;2023-03-31T00:26:30;100345.50;;;22.01;45.17
17254;BME280;32542;52.832;13.816;2023-03-31T00:29:33;100335.88;;;21.98;45.11
17254;BME280;32542;52.832;13.816;2023-03-31T00:32:36;100339.31;;;22.00;45.22
17254;BME280;32542;52.832;13.816;2023-03-31T00:35:39;100335.88;;;21.98;45.16
17254;BME280;32542;52.832;13.816;2023-03-31T00:38:44;100331.47;;;21.97;45.16
17254;BME280;32542;52.832;13.816;2023-03-31T00:41:49;100330.53;;;21.98;45.31
17254;BME280;32542;52.832;13.816;2023-03-31T00:45:21;100331.47;;;21.97;45.32
17254;BME280;32542;52.832;13.816;2023-03-31T00:48:24;100326.13;;;21.97;45.38
17254;BME280;32542;52.832;13.816;2023-03-31T00:51:30;100327.88;;;21.98;45.20
17254;BME280;32542;52.832;13.816;2023-03-31T00:54:35;100324.34;;;21.98;45.24
17254;BME280;32542;52.832;13.816;2023-03-31T00:57:42;100325.22;;;21.98;45.22
17254;BME280;32542;52.832;13.816;2023-03-31T01:00:49;100322.53;;;21.98;45.08
17254;BME280;32542;52.832;13.816;2023-03-31T01:03:53;100318.16;;;21.97;45.09
17254;BME280;32542;52.832;13.816;2023-03-31T01:07:03;100310.16;;;21.97;45.11
17254;BME280;32542;52.832;13.816;2023-03-31T01:10:10;100311.00;;;21.98;45.02
17254;BME280;32542;52.832;13.816;2023-03-31T01:13:15;100301.31;;;21.97;45.07
17254;BME280;32542;52.832;13.816;2023-03-31T01:16:20;100301.31;;;21.97;45.08
17254;BME280;32542;52.832;13.816;2023-03-31T01:19:28;100300.44;;;21.96;45.14
17254;BME280;32542;52.832;13.816;2023-03-31T01:26:39;100308.44;;;21.96;45.42
17254;BME280;32542;52.832;13.816;2023-03-31T01:34:04;100293.38;;;21.95;45.27
17254;BME280;32542;52.832;13.816;2023-03-31T01:37:26;100290.72;;;21.95;45.19
17254;BME280;32542;52.832;13.816;2023-03-31T01:40:54;100285.38;;;21.95;45.19
17254;BME280;32542;52.832;13.816;2023-03-31T01:44:07;100285.38;;;21.95;45.11
17254;BME280;32542;52.832;13.816;2023-03-31T01:47:15;100274.81;;;21.94;45.04
17254;BME280;32542;52.832;13.816;2023-03-31T01:50:28;100278.34;;;21.94;45.11
17254;BME280;32542;52.832;13.816;2023-03-31T01:53:38;100275.69;;;21.94;45.05
17254;BME280;32542;52.832;13.816;2023-03-31T01:56:50;100269.50;;;21.94;45.05
17254;BME280;32542;52.832;13.816;2023-03-31T02:00:02;100265.03;;;21.94;45.21
17254;BME280;32542;52.832;13.816;2023-03-31T02:03:15;100260.63;;;21.93;45.06
17254;BME280;32542;52.832;13.816;2023-03-31T02:06:22;100263.31;;;21.93;45.11
17254;BME280;32542;52.832;13.816;2023-03-31T02:09:30;100247.31;;;21.93;45.38
17254;BME280;32542;52.832;13.816;2023-03-31T02:12:39;100242.84;;;21.94;45.26
17254;BME280;32542;52.832;13.816;2023-03-31T02:15:47;100239.31;;;21.93;45.23
17254;BME280;32542;52.832;13.816;2023-03-31T02:18:55;100241.13;;;21.93;45.07
17254;BME280;32542;52.832;13.816;2023-03-31T02:22:05;100243.81;;;21.93;45.12
17254;BME280;32542;52.832;13.816;2023-03-31T02:25:10;100241.97;;;21.93;45.06
17254;BME280;32542;52.832;13.816;2023-03-31T02:28:18;100233.03;;;21.94;45.08
17254;BME280;32542;52.832;13.816;2023-03-31T02:31:27;100241.97;;;21.93;45.08
17254;BME280;32542;52.832;13.816;2023-03-31T02:34:31;100235.81;;;21.93;45.01
17254;BME280;32542;52.832;13.816;2023-03-31T02:37:34;100237.59;;;21.92;44.97
17254;BME280;32542;52.832;13.816;2023-03-31T02:40:39;100227.81;;;21.93;45.04
17254;BME280;32542;52.832;13.816;2023-03-31T02:43:43;100229.63;;;21.92;45.09
17254;BME280;32542;52.832;13.816;2023-03-31T02:46:47;100226.94;;;21.92;45.18
17254;BME280;32542;52.832;13.816;2023-03-31T02:49:52;100228.63;;;21.93;45.13
17254;BME280;32542;52.832;13.816;2023-03-31T02:53:02;100219.81;;;21.93;45.14
17254;BME280;32542;52.832;13.816;2023-03-31T02:56:19;100217.97;;;21.93;45.06
17254;BME280;32542;52.832;13.816;2023-03-31T02:59:34;100217.03;;;21.94;45.18
17254;BME280;32542;52.832;13.816;2023-03-31T03:02:53;100211.72;;;21.94;45.11
17254;BME280;32542;52.832;13.816;2023-03-31T03:06:05;100208.19;;;21.94;45.05
17254;BME280;32542;52.832;13.816;2023-03-31T03:09:25;100204.66;;;21.93;45.00
17254;BME280;32542;52.832;13.816;2023-03-31T03:12:37;100205.50;;;21.94;45.11
17254;BME280;32542;52.832;13.816;2023-03-31T03:15:46;100210.84;;;21.94;45.04
17254;BME280;32542;52.832;13.816;2023-03-31T03:18:57;100210.84;;;21.94;44.94
17254;BME280;32542;52.832;13.816;2023-03-31T03:22:00;100205.50;;;21.94;44.99
17254;BME280;32542;52.832;13.816;2023-03-31T03:25:04;100202.84;;;21.94;45.10
17254;BME280;32542;52.832;13.816;2023-03-31T03:28:07;100200.06;;;21.95;45.06
17254;BME280;32542;52.832;13.816;2023-03-31T03:31:11;100192.09;;;21.95;45.15
17254;BME280;32542;52.832;13.816;2023-03-31T03:34:16;100197.41;;;21.95;45.08
17254;BME280;32542;52.832;13.816;2023-03-31T03:37:20;100188.47;;;21.96;45.13
17254;BME280;32542;52.832;13.816;2023-03-31T03:40:23;100191.16;;;21.96;45.06
17254;BME280;32542;52.832;13.816;2023-03-31T03:43:26;100189.41;;;21.95;44.98
17254;BME280;32542;52.832;13.816;2023-03-31T03:46:30;100188.47;;;21.96;44.96
17254;BME280;32542;52.832;13.816;2023-03-31T03:49:33;100189.34;;;21.97;44.92
17254;BME280;32542;52.832;13.816;2023-03-31T03:52:36;100175.16;;;21.96;45.04
17254;BME280;32542;52.832;13.816;2023-03-31T03:55:40;100184.84;;;21.97;45.09
17254;BME280;32542;52.832;13.816;2023-03-31T03:58:43;100179.50;;;21.97;44.90
17254;BME280;32542;52.832;13.816;2023-03-31T04:01:47;100176.84;;;21.97;44.94
17254;BME280;32542;52.832;13.816;2023-03-31T04:04:50;100164.50;;;21.96;45.07
17254;BME280;32542;52.832;13.816;2023-03-31T04:07:53;100170.69;;;21.97;45.05
17254;BME280;32542;52.832;13.816;2023-03-31T04:10:56;100157.34;;;21.97;45.05
17254;BME280;32542;52.832;13.816;2023-03-31T04:13:59;100163.50;;;21.97;44.95
17254;BME280;32542;52.832;13.816;2023-03-31T04:17:03;100166.13;;;21.99;45.06
17254;BME280;32542;52.832;13.816;2023-03-31T04:20:08;100170.59;;;21.98;45.11
17254;BME280;32542;52.832;13.816;2023-03-31T04:23:12;100161.59;;;21.99;44.92
17254;BME280;32542;52.832;13.816;2023-03-31T04:26:16;100154.59;;;21.98;44.96
17254;BME280;32542;52.832;13.816;2023-03-31T04:29:27;100150.94;;;21.99;44.86
17254;BME280;32542;52.832;13.816;2023-03-31T04:32:35;100156.28;;;21.99;45.01
17254;BME280;32542;52.832;13.816;2023-03-31T04:35:38;100161.59;;;21.99;44.99
17254;BME280;32542;52.832;13.816;2023-03-31T04:38:49;100149.25;;;21.98;44.87
17254;BME280;32542;52.832;13.816;2023-03-31T04:41:56;100145.72;;;21.98;45.15
17254;BME280;32542;52.832;13.816;2023-03-31T04:44:59;100132.38;;;21.98;44.99
17254;BME280;32542;52.832;13.816;2023-03-31T04:48:03;100135.06;;;21.98;44.99
17254;BME280;32542;52.832;13.816;2023-03-31T04:51:07;100130.59;;;21.98;45.05
17254;BME280;32542;52.832;13.816;2023-03-31T04:54:11;100117.25;;;21.98;45.10
17254;BME280;32542;52.832;13.816;2023-03-31T04:57:14;100111.94;;;21.98;45.10
17254;BME280;32542;52.832;13.816;2023-03-31T05:00:18;100116.28;;;21.99;45.12
17254;BME280;32542;52.832;13.816;2023-03-31T05:03:23;100109.16;;;22.00;45.03
17254;BME280;32542;52.832;13.816;2023-03-31T05:06:26;100104.69;;;22.00;44.93
17254;BME280;32542;52.832;13.816;2023-03-31T05:09:29;100110.03;;;22.00;45.01
17254;BME280;32542;52.832;13.816;2023-03-31T05:12:34;100105.63;;;21.99;44.86
17254;BME280;32542;52.832;13.816;2023-03-31T05:15:37;100101.16;;;22.00;44.95
17254;BME280;32542;52.832;13.816;2023-03-31T05:18:42;100091.47;;;21.99;45.03
17254;BME280;32542;52.832;13.816;2023-03-31T05:21:45;100084.28;;;21.99;45.04
17254;BME280;32542;52.832;13.816;2023-03-31T05:24:48;100085.16;;;22.00;45.04
17254;BME280;32542;52.832;13.816;2023-03-31T05:27:51;100076.31;;;21.99;45.01
17254;BME280;32542;52.832;13.816;2023-03-31T05:30:53;100075.47;;;21.99;44.97
17254;BME280;32542;52.832;13.816;2023-03-31T05:33:58;100074.59;;;21.98;45.11
17254;BME280;32542;52.832;13.816;2023-03-31T05:37:01;100070.97;;;21.99;45.00
17254;BME280;32542;52.832;13.816;2023-03-31T05:40:04;100072.69;;;22.00;45.14
17254;BME280;32542;52.832;13.816;2023-03-31T05:43:08;100072.69;;;22.00;44.99
17254;BME280;32542;52.832;13.816;2023-03-31T05:46:11;100070.03;;;22.00;44.95
17254;BME280;32542;52.832;13.816;2023-03-31T05:49:16;100062.03;;;22.00;45.07
17254;BME280;32542;52.832;13.816;2023-03-31T05:52:19;100066.50;;;22.00;44.98
17254;BME280;32542;52.832;13.816;2023-03-31T05:55:22;100062.03;;;22.00;45.03
17254;BME280;32542;52.832;13.816;2023-03-31T05:58:25;100056.69;;;22.00;45.02
17254;BME280;32542;52.832;13.816;2023-03-31T06:01:28;100042.44;;;22.01;45.04
17254;BME280;32542;52.832;13.816;2023-03-31T06:04:32;100045.09;;;22.01;44.93
17254;BME280;32542;52.832;13.816;2023-03-31T06:07:36;100040.69;;;22.00;44.98
17254;BME280;32542;52.832;13.816;2023-03-31T06:10:39;100033.66;;;21.99;44.99
17254;BME280;32542;52.832;13.816;2023-03-31T06:13:43;100040.69;;;22.00;45.04
17254;BME280;32542;52.832;13.816;2023-03-31T06:16:46;100042.44;;;22.01;45.01
17254;BME280;32542;52.832;13.816;2023-03-31T06:19:51;100037.94;;;22.02;45.11
17254;BME280;32542;52.832;13.816;2023-03-31T06:22:54;100029.09;;;22.01;45.20
17254;BME280;32542;52.832;13.816;2023-03-31T06:25:59;100030.78;;;22.02;45.04
17254;BME280;32542;52.832;13.816;2023-03-31T06:29:03;100022.78;;;22.02;45.04
17254;BME280;32542;52.832;13.816;2023-03-31T06:32:06;100015.78;;;22.01;44.91
17254;BME280;32542;52.832;13.816;2023-03-31T06:35:10;100015.78;;;22.01;44.95
17254;BME280;32542;52.832;13.816;2023-03-31T06:38:13;100012.25;;;22.01;44.97
17254;BME280;32542;52.832;13.816;2023-03-31T06:41:17;100017.66;;;21.99;45.07
17254;BME280;32542;52.832;13.816;2023-03-31T06:44:21;100016.81;;;21.99;45.07
17254;BME280;32542;52.832;13.816;2023-03-31T06:47:25;100008.91;;;21.97;45.07
17254;BME280;32542;52.832;13.816;2023-03-31T06:50:29;100004.53;;;21.96;45.14
17254;BME280;32542;52.832;13.816;2023-03-31T06:53:32;100005.47;;;21.95;45.11
17254;BME280;32542;52.832;13.816;2023-03-31T06:56:36;100005.47;;;21.95;45.17
17254;BME280;32542;52.832;13.816;2023-03-31T06:59:39;100012.53;;;21.96;45.20
17254;BME280;32542;52.832;13.816;2023-03-31T07:02:42;100011.56;;;21.97;45.39
17254;BME280;32542;52.832;13.816;2023-03-31T07:05:48;100012.53;;;21.96;45.40
17254;BME280;32542;52.832;13.816;2023-03-31T07:08:51;100006.34;;;21.96;45.34
17254;BME280;32542;52.832;13.816;2023-03-31T07:11:54;100008.47;;;21.91;45.22
17254;BME280;32542;52.832;13.816;2023-03-31T07:14:57;100000.16;;;21.81;45.71
17254;BME280;32542;52.832;13.816;2023-03-31T07:18:00;99998.75;;;21.75;46.01
17254;BME280;32542;52.832;13.816;2023-03-31T07:21:05;100010.09;;;21.65;45.33
17254;BME280;32542;52.832;13.816;2023-03-31T07:24:10;99996.59;;;21.54;45.00
17254;BME280;32542;52.832;13.816;2023-03-31T07:27:13;100002.38;;;21.46;44.78
17254;BME280;32542;52.832;13.816;2023-03-31T07:30:18;100002.69;;;21.42;44.63
17254;BME280;32542;52.832;13.816;2023-03-31T07:33:21;99997.56;;;21.39;44.51
17254;BME280;32542;52.832;13.816;2023-03-31T07:36:25;99991.25;;;21.40;44.42
17254;BME280;32542;52.832;13.816;2023-03-31T07:39:28;99980.59;;;21.40;44.33
17254;BME280;32542;52.832;13.816;2023-03-31T07:42:32;99976.81;;;21.44;44.52
17254;BME280;32542;52.832;13.816;2023-03-31T07:45:38;99979.09;;;21.50;44.68
17254;BME280;32542;52.832;13.816;2023-03-31T07:48:41;99961.00;;;21.55;44.91
17254;BME280;32542;52.832;13.816;2023-03-31T07:51:45;99957.97;;;21.61;44.96
17254;BME280;32542;52.832;13.816;2023-03-31T07:54:48;99954.16;;;21.65;45.13
17254;BME280;32542;52.832;13.816;2023-03-31T07:57:51;99948.59;;;21.68;45.14
17254;BME280;32542;52.832;13.816;2023-03-31T08:00:55;99943.94;;;21.71;45.14
17254;BME280;32542;52.832;13.816;2023-03-31T08:03:57;99937.47;;;21.75;45.18
17254;BME280;32542;52.832;13.816;2023-03-31T08:07:03;99934.56;;;21.78;45.34
17254;BME280;32542;52.832;13.816;2023-03-31T08:10:09;99928.19;;;21.81;45.41
17254;BME280;32542;52.832;13.816;2023-03-31T08:13:12;99929.97;;;21.82;45.44
17254;BME280;32542;52.832;13.816;2023-03-31T08:16:16;99928.03;;;21.84;45.38
17254;BME280;32542;52.832;13.816;2023-03-31T08:19:19;99919.06;;;21.85;45.46
17254;BME280;32542;52.832;13.816;2023-03-31T08:22:24;99926.13;;;21.86;45.43
17254;BME280;32542;52.832;13.816;2023-03-31T08:25:27;99914.50;;;21.87;45.46
17254;BME280;32542;52.832;13.816;2023-03-31T08:28:30;99917.16;;;21.87;45.56
17254;BME280;32542;52.832;13.816;2023-03-31T08:31:32;99918.03;;;21.88;45.55
17254;BME280;32542;52.832;13.816;2023-03-31T08:34:35;99919.84;;;21.87;45.76
17254;BME280;32542;52.832;13.816;2023-03-31T08:37:40;99915.47;;;21.86;45.78
17254;BME280;32542;52.832;13.816;2023-03-31T08:40:43;99918.13;;;21.86;45.82
17254;BME280;32542;52.832;13.816;2023-03-31T08:43:47;99914.63;;;21.86;45.83
17254;BME280;32542;52.832;13.816;2023-03-31T08:46:52;99908.41;;;21.85;45.82
17254;BME280;32542;52.832;13.816;2023-03-31T08:49:59;99903.09;;;21.85;45.72
17254;BME280;32542;52.832;13.816;2023-03-31T08:53:07;99904.06;;;21.84;46.50
17254;BME280;32542;52.832;13.816;2023-03-31T08:56:16;99903.09;;;21.85;46.59
17254;BME280;32542;52.832;13.816;2023-03-31T08:59:25;99899.56;;;21.85;46.47
17254;BME280;32542;52.832;13.816;2023-03-31T09:02:33;99893.41;;;21.84;46.39
17254;BME280;32542;52.832;13.816;2023-03-31T09:05:51;99891.50;;;21.86;46.45
17254;BME280;32542;52.832;13.816;2023-03-31T09:09:06;99879.97;;;21.86;46.49
17254;BME280;32542;52.832;13.816;2023-03-31T09:12:15;99873.66;;;21.87;46.57
17254;BME280;32542;52.832;13.816;2023-03-31T09:15:25;99878.16;;;21.86;46.41
17254;BME280;32542;52.832;13.816;2023-03-31T09:18:31;99868.44;;;21.85;46.36
17254;BME280;32542;52.832;13.816;2023-03-31T09:21:39;99864.91;;;21.85;46.82
17254;BME280;32542;52.832;13.816;2023-03-31T09:24:55;99862.25;;;21.85;46.69
17254;BME280;32542;52.832;13.816;2023-03-31T09:28:02;99854.16;;;21.86;46.70
17254;BME280;32542;52.832;13.816;2023-03-31T09:31:12;99857.66;;;21.87;46.58
17254;BME280;32542;52.832;13.816;2023-03-31T09:34:23;99847.00;;;21.87;46.60
17254;BME280;32542;52.832;13.816;2023-03-31T09:37:29;99855.75;;;21.89;46.74
17254;BME280;32542;52.832;13.816;2023-03-31T09:40:34;99846.94;;;21.88;46.70
17254;BME280;32542;52.832;13.816;2023-03-31T09:43:39;99843.28;;;21.89;46.70
17254;BME280;32542;52.832;13.816;2023-03-31T09:46:42;99832.53;;;21.91;46.70
17254;BME280;32542;52.832;13.816;2023-03-31T09:49:46;99829.78;;;21.92;46.66
17254;BME280;32542;52.832;13.816;2023-03-31T09:52:56;99825.28;;;21.93;46.82
17254;BME280;32542;52.832;13.816;2023-03-31T09:56:03;99820.78;;;21.93;46.82
17254;BME280;32542;52.832;13.816;2023-03-31T09:59:13;99815.47;;;21.93;46.74
17254;BME280;32542;52.832;13.816;2023-03-31T10:02:27;99808.44;;;21.92;46.80
17254;BME280;32542;52.832;13.816;2023-03-31T10:05:33;99805.78;;;21.92;47.04
17254;BME280;32542;52.832;13.816;2023-03-31T10:08:38;99794.25;;;21.92;47.06
17254;BME280;32542;52.832;13.816;2023-03-31T10:11:55;99794.16;;;21.93;47.16
17254;BME280;32542;52.832;13.816;2023-03-31T10:15:14;99789.78;;;21.92;47.39
17254;BME280;32542;52.832;13.816;2023-03-31T10:18:31;99786.25;;;21.92;47.38
17254;BME280;32542;52.832;13.816;2023-03-31T10:21:36;99782.72;;;21.91;47.62
17254;BME280;32542;52.832;13.816;2023-03-31T10:24:41;99781.78;;;21.92;47.49
17254;BME280;32542;52.832;13.816;2023-03-31T10:27:47;99773.78;;;21.92;47.51
17254;BME280;32542;52.832;13.816;2023-03-31T10:30:53;99772.19;;;21.90;47.62
17254;BME280;32542;52.832;13.816;2023-03-31T10:33:56;99773.47;;;21.84;47.09
17254;BME280;32542;52.832;13.816;2023-03-31T10:37:03;99778.53;;;21.74;46.60
17254;BME280;32542;52.832;13.816;2023-03-31T10:40:13;99771.81;;;21.69;46.74
17254;BME280;32542;52.832;13.816;2023-03-31T10:43:20;99764.88;;;21.66;46.42
17254;BME280;32542;52.832;13.816;2023-03-31T10:46:39;99760.41;;;21.67;46.45
17254;BME280;32542;52.832;13.816;2023-03-31T10:49:44;99754.84;;;21.70;46.36
17254;BME280;32542;52.832;13.816;2023-03-31T10:52:49;99754.75;;;21.71;46.41
17254;BME280;32542;52.832;13.816;2023-03-31T10:56:00;99739.53;;;21.73;46.47
17254;BME280;32542;52.832;13.816;2023-03-31T10:59:30;99737.69;;;21.74;46.65
17254;BME280;32542;52.832;13.816;2023-03-31T11:03:22;99732.16;;;21.77;46.81
17254;BME280;32542;52.832;13.816;2023-03-31T11:06:42;99720.53;;;21.78;46.89
17254;BME280;32542;52.832;13.816;2023-03-31T11:09:58;99718.59;;;21.80;46.97
17254;BME280;32542;52.832;13.816;2023-03-31T11:13:07;99704.34;;;21.81;47.19
17254;BME280;32542;52.832;13.816;2023-03-31T11:16:18;99706.09;;;21.82;47.37
17254;BME280;32542;52.832;13.816;2023-03-31T11:19:34;99702.47;;;21.83;47.37
17254;BME280;32542;52.832;13.816;2023-03-31T11:22:44;99698.84;;;21.84;47.31
17254;BME280;32542;52.832;13.816;2023-03-31T11:25:57;99700.53;;;21.85;47.30
17254;BME280;32542;52.832;13.816;2023-03-31T11:29:10;99692.53;;;21.85;47.52
17254;BME280;32542;52.832;13.816;2023-03-31T11:32:30;99676.56;;;21.85;47.69
17254;BME280;32542;52.832;13.816;2023-03-31T11:35:44;99672.09;;;21.86;47.92
17254;BME280;32542;52.832;13.816;2023-03-31T11:39:03;99665.88;;;21.85;47.91
17254;BME280;32542;52.832;13.816;2023-03-31T11:42:14;99663.22;;;21.85;47.75
17254;BME280;32542;52.832;13.816;2023-03-31T11:45:22;99662.38;;;21.85;47.97
17254;BME280;32542;52.832;13.816;2023-03-31T11:48:34;99647.25;;;21.85;47.94
17254;BME280;32542;52.832;13.816;2023-03-31T11:51:43;99646.38;;;21.85;48.38
17254;BME280;32542;52.832;13.816;2023-03-31T11:54:52;99639.25;;;21.85;48.45
17254;BME280;32542;52.832;13.816;2023-03-31T11:58:01;99635.72;;;21.85;48.42
17254;BME280;32542;52.832;13.816;2023-03-31T12:01:08;99640.22;;;21.84;48.76
17254;BME280;32542;52.832;13.816;2023-03-31T12:04:24;99629.56;;;21.84;48.73
17254;BME280;32542;52.832;13.816;2023-03-31T12:07:36;99628.59;;;21.85;48.74
17254;BME280;32542;52.832;13.816;2023-03-31T12:10:44;99620.59;;;21.85;48.64
17254;BME280;32542;52.832;13.816;2023-03-31T12:13:51;99607.38;;;21.84;48.54
17254;BME280;32542;52.832;13.816;2023-03-31T12:16:59;99600.25;;;21.84;48.43
17254;BME280;32542;52.832;13.816;2023-03-31T12:20:11;99598.53;;;21.83;48.34
17254;BME280;32542;52.832;13.816;2023-03-31T12:23:18;99590.53;;;21.83;48.48
17254;BME280;32542;52.832;13.816;2023-03-31T12:26:30;99579.88;;;21.83;48.51
17254;BME280;32542;52.832;13.816;2023-03-31T12:29:39;99574.53;;;21.83;48.64
17254;BME280;32542;52.832;13.816;2023-03-31T12:32:47;99585.19;;;21.83;48.67
17254;BME280;32542;52.832;13.816;2023-03-31T12:36:20;99568.34;;;21.83;48.76
17254;BME280;32542;52.832;13.816;2023-03-31T12:39:35;99569.22;;;21.83;48.55
17254;BME280;32542;52.832;13.816;2023-03-31T12:42:51;99559.53;;;21.82;48.64
17254;BME280;32542;52.832;13.816;2023-03-31T12:46:07;99567.53;;;21.82;48.74
17254;BME280;32542;52.832;13.816;2023-03-31T12:49:25;99558.72;;;21.80;48.70
17254;BME280;32542;52.832;13.816;2023-03-31T12:52:38;99561.38;;;21.80;48.65
17254;BME280;32542;52.832;13.816;2023-03-31T12:55:47;99551.72;;;21.79;48.69
17254;BME280;32542;52.832;13.816;2023-03-31T12:58:52;99548.19;;;21.78;48.65
17254;BME280;32542;52.832;13.816;2023-03-31T13:02:16;99535.84;;;21.77;48.49
17254;BME280;32542;52.832;13.816;2023-03-31T13:05:44;99543.84;;;21.77;48.56
17254;BME280;32542;52.832;13.816;2023-03-31T13:08:52;99526.97;;;21.77;48.73
17254;BME280;32542;52.832;13.816;2023-03-31T13:11:55;99524.44;;;21.75;48.69
17254;BME280;32542;52.832;13.816;2023-03-31T13:15:03;99525.19;;;21.77;48.66
17254;BME280;32542;52.832;13.816;2023-03-31T13:18:06;99523.47;;;21.76;48.64
17254;BME280;32542;52.832;13.816;2023-03-31T13:21:20;99514.59;;;21.76;48.53
17254;BME280;32542;52.832;13.816;2023-03-31T13:24:26;99508.44;;;21.75;48.48
17254;BME280;32542;52.832;13.816;2023-03-31T13:27:31;99503.13;;;21.75;48.29
17254;BME280;32542;52.832;13.816;2023-03-31T13:30:50;99498.63;;;21.76;48.38
17254;BME280;32542;52.832;13.816;2023-03-31T13:33:55;99501.41;;;21.74;48.34
17254;BME280;32542;52.832;13.816;2023-03-31T13:37:12;99494.28;;;21.75;48.38
17254;BME280;32542;52.832;13.816;2023-03-31T13:40:31;99491.59;;;21.75;48.31
17254;BME280;32542;52.832;13.816;2023-03-31T13:47:43;99491.72;;;21.73;48.29
17254;BME280;32542;52.832;13.816;2023-03-31T13:51:14;99487.22;;;21.74;48.30
17254;BME280;32542;52.832;13.816;2023-03-31T13:54:48;99488.19;;;21.73;48.34
17254;BME280;32542;52.832;13.816;2023-03-31T13:58:22;99487.34;;;21.72;48.24
17254;BME280;32542;52.832;13.816;2023-03-31T14:01:47;99498.00;;;21.72;48.26
17254;BME280;32542;52.832;13.816;2023-03-31T14:05:02;99499.81;;;21.72;48.29
17254;BME280;32542;52.832;13.816;2023-03-31T14:08:11;99502.47;;;21.72;48.39
17254;BME280;32542;52.832;13.816;2023-03-31T14:11:21;99507.06;;;21.70;48.32
17254;BME280;32542;52.832;13.816;2023-03-31T14:14:26;99518.56;;;21.70;48.23
17254;BME280;32542;52.832;13.816;2023-03-31T14:17:33;99513.38;;;21.69;48.27
17254;BME280;32542;52.832;13.816;2023-03-31T14:20:44;99512.50;;;21.68;48.21
17254;BME280;32542;52.832;13.816;2023-03-31T14:23:57;99508.03;;;21.69;48.22
17254;BME280;32542;52.832;13.816;2023-03-31T14:27:06;99501.84;;;21.68;48.24
17254;BME280;32542;52.832;13.816;2023-03-31T14:30:27;99508.97;;;21.68;48.27
17254;BME280;32542;52.832;13.816;2023-03-31T14:33:38;99503.66;;;21.68;48.10
17254;BME280;32542;52.832;13.816;2023-03-31T14:36:48;99506.31;;;21.68;48.08
17254;BME280;32542;52.832;13.816;2023-03-31T14:40:00;99511.66;;;21.68;48.07
17254;BME280;32542;52.832;13.816;2023-03-31T14:43:09;99501.84;;;21.68;48.12
17254;BME280;32542;52.832;13.816;2023-03-31T14:46:21;99506.31;;;21.68;48.15
17254;BME280;32542;52.832;13.816;2023-03-31T14:49:26;99508.97;;;21.68;48.08
17254;BME280;32542;52.832;13.816;2023-03-31T14:52:31;99504.63;;;21.67;47.94
17254;BME280;32542;52.832;13.816;2023-03-31T14:55:36;99497.59;;;21.66;48.03
17254;BME280;32542;52.832;13.816;2023-03-31T14:59:00;99496.63;;;21.67;48.03
17254;BME280;32542;52.832;13.816;2023-03-31T15:02:12;99503.78;;;21.66;47.96
17254;BME280;32542;52.832;13.816;2023-03-31T15:05:24;99506.44;;;21.66;47.99
17254;BME280;32542;52.832;13.816;2023-03-31T15:08:28;99497.59;;;21.66;47.96
17254;BME280;32542;52.832;13.816;2023-03-31T15:11:33;99498.44;;;21.66;48.03
17254;BME280;32542;52.832;13.816;2023-03-31T15:14:40;99503.66;;;21.68;47.93
17254;BME280;32542;52.832;13.816;2023-03-31T15:17:46;99501.97;;;21.67;47.83
17254;BME280;32542;52.832;13.816;2023-03-31T15:20:49;99501.00;;;21.68;47.99
17254;BME280;32542;52.832;13.816;2023-03-31T15:23:54;99501.00;;;21.68;47.83
17254;BME280;32542;52.832;13.816;2023-03-31T15:27:01;99501.00;;;21.68;47.77
17254;BME280;32542;52.832;13.816;2023-03-31T15:30:07;99497.47;;;21.67;47.82
17254;BME280;32542;52.832;13.816;2023-03-31T15:33:18;99495.78;;;21.66;47.93
17254;BME280;32542;52.832;13.816;2023-03-31T15:36:22;99494.94;;;21.66;48.01
17254;BME280;32542;52.832;13.816;2023-03-31T15:39:27;99497.59;;;21.66;47.78
17254;BME280;32542;52.832;13.816;2023-03-31T15:42:31;99493.25;;;21.65;47.86
17254;BME280;32542;52.832;13.816;2023-03-31T15:45:48;99501.22;;;21.65;47.85
17254;BME280;32542;52.832;13.816;2023-03-31T15:48:54;99490.56;;;21.65;47.86
17254;BME280;32542;52.832;13.816;2023-03-31T15:51:57;99497.72;;;21.64;47.82
17254;BME280;32542;52.832;13.816;2023-03-31T15:55:24;99502.06;;;21.65;47.76
17254;BME280;32542;52.832;13.816;2023-03-31T15:58:52;99495.91;;;21.65;47.77
17254;BME280;32542;52.832;13.816;2023-03-31T16:01:56;99489.72;;;21.64;47.81
17254;BME280;32542;52.832;13.816;2023-03-31T16:05:03;99491.41;;;21.65;47.65
17254;BME280;32542;52.832;13.816;2023-03-31T16:08:24;99486.19;;;21.64;47.69
17254;BME280;32542;52.832;13.816;2023-03-31T16:11:35;99488.00;;;21.63;47.78
17254;BME280;32542;52.832;13.816;2023-03-31T16:14:45;99488.84;;;21.64;47.84
17254;BME280;32542;52.832;13.816;2023-03-31T16:17:51;99491.50;;;21.64;47.81
17254;BME280;32542;52.832;13.816;2023-03-31T16:20:57;99489.84;;;21.63;47.81
17254;BME280;32542;52.832;13.816;2023-03-31T16:24:03;99488.84;;;21.64;47.74
17254;BME280;32542;52.832;13.816;2023-03-31T16:27:07;99489.84;;;21.63;47.74
17254;BME280;32542;52.832;13.816;2023-03-31T16:30:12;99490.66;;;21.63;47.74